Terminal Aerodrome Forecast
Issued by NWS Boise, ID

Home | Current Version | Previous Version | Text Only | Print | Product List | Glossary On
Versions: 1 2 3 4 5 6 7 8 9 10 11 12
000
FTUS45 KBOI 162320
TAFBOI
TAF
KBOI 162320Z 1700/1724 29012KT P6SM SCT120
     FM170400 VRB06KT P6SM SCT120
     FM171800 13007KT P6SM SCT080 OVC120=

USA.gov is the U.S. government's official web portal to all federal, state and local government web resources and services.